createdAt,value
2023-04-25T00:01:15.746Z,99163.97
2023-04-25T00:03:43.307Z,99161.94
2023-04-25T00:06:10.910Z,99158.97
2023-04-25T00:08:38.358Z,99158.88
2023-04-25T00:11:06.341Z,99165.44
2023-04-25T00:13:35.465Z,99160.69
2023-04-25T00:16:03.850Z,99176.22
2023-04-25T00:18:31.448Z,99169.13
2023-04-25T00:20:58.863Z,99166.47
2023-04-25T00:23:26.461Z,99163.91
2023-04-25T00:25:54.056Z,99159.22
2023-04-25T00:28:21.717Z,99169.75
2023-04-25T00:30:50.596Z,99167.97
2023-04-25T00:33:18.050Z,99172.78
2023-04-25T00:35:45.587Z,99163.91
2023-04-25T00:38:13.032Z,99167.97
2023-04-25T00:40:40.582Z,99161.88
2023-04-25T00:43:08.059Z,99171.00
2023-04-25T00:45:39.996Z,99174.28
2023-04-25T00:48:08.905Z,99173.59
2023-04-25T00:50:37.299Z,99161.94
2023-04-25T00:53:05.479Z,99168.72
2023-04-25T00:55:33.380Z,99163.91
2023-04-25T00:58:01.291Z,99164.31
2023-04-25T01:00:28.860Z,99163.69
2023-04-25T01:02:56.729Z,99164.97
2023-04-25T01:05:26.139Z,99166.69
2023-04-25T01:07:53.842Z,99167.47
2023-04-25T01:10:21.382Z,99165.75
2023-04-25T01:12:49.322Z,99171.63
2023-04-25T01:15:17.112Z,99176.53
2023-04-25T01:17:45.202Z,99169.44
2023-04-25T01:20:13.807Z,99163.09
2023-04-25T01:22:42.740Z,99170.44
2023-04-25T01:25:10.927Z,99169.22
2023-04-25T01:27:38.860Z,99160.53
2023-04-25T01:30:08.000Z,99160.75
2023-04-25T01:32:39.373Z,99163.59
2023-04-25T01:35:10.279Z,99169.75
2023-04-25T01:37:38.178Z,99174.97
2023-04-25T01:40:08.835Z,99176.06
2023-04-25T01:42:37.542Z,99175.13
2023-04-25T01:45:05.940Z,99178.72
2023-04-25T01:47:33.589Z,99174.44
2023-04-25T01:50:01.031Z,99179.97
2023-04-25T01:52:28.452Z,99185.22
2023-04-25T01:54:58.850Z,99193.91
2023-04-25T01:57:27.648Z,99185.94
2023-04-25T01:59:59.786Z,99184.69
2023-04-25T02:02:27.330Z,99191.06
2023-04-25T02:04:55.449Z,99199.03
2023-04-25T02:07:23.005Z,99196.44
2023-04-25T02:09:50.526Z,99202.09
2023-04-25T02:12:17.959Z,99193.91
2023-04-25T02:14:46.781Z,99195.28
2023-04-25T02:17:14.500Z,99196.38
2023-04-25T02:19:42.028Z,99200.44
2023-04-25T02:22:09.485Z,99212.44
2023-04-25T02:24:36.925Z,99201.66
2023-04-25T02:27:04.763Z,99197.81
2023-04-25T02:29:32.183Z,99209.53
2023-04-25T02:32:00.988Z,99213.09
2023-04-25T02:34:28.396Z,99209.97
2023-04-25T02:36:56.004Z,99209.97
2023-04-25T02:39:25.949Z,99206.50
2023-04-25T02:41:54.216Z,99207.47
2023-04-25T02:44:21.711Z,99208.03
2023-04-25T02:46:49.290Z,99213.94
2023-04-25T02:49:18.168Z,99220.44
2023-04-25T02:51:45.645Z,99208.22
2023-04-25T02:54:13.100Z,99204.94
2023-04-25T02:56:40.562Z,99214.44
2023-04-25T02:59:08.045Z,99208.69
2023-04-25T03:01:35.540Z,99212.41
2023-04-25T03:04:03.560Z,99213.31
2023-04-25T03:06:32.687Z,99216.19
2023-04-25T03:09:00.785Z,99209.59
2023-04-25T03:11:28.249Z,99224.56
2023-04-25T03:13:55.741Z,99224.66
2023-04-25T03:16:23.679Z,99229.78
2023-04-25T03:18:51.780Z,99221.50
2023-04-25T03:21:19.497Z,99225.44
2023-04-25T03:23:48.465Z,99225.00
2023-04-25T03:26:16.251Z,99219.03
2023-04-25T03:28:43.936Z,99223.00
2023-04-25T03:31:11.459Z,99224.84
2023-04-25T03:33:39.051Z,99229.38
2023-04-25T03:36:07.468Z,99226.97
2023-04-25T03:38:34.985Z,99230.63
2023-04-25T03:41:04.283Z,99229.81
2023-04-25T03:43:31.784Z,99234.06
2023-04-25T03:45:59.497Z,99235.81
2023-04-25T03:48:27.498Z,99245.38
2023-04-25T03:50:55.509Z,99238.00
2023-04-25T03:53:23.135Z,99242.09
2023-04-25T03:55:50.681Z,99244.66
2023-04-25T03:58:19.512Z,99234.50
2023-04-25T04:00:47.008Z,99243.50
2023-04-25T04:03:14.544Z,99249.53
2023-04-25T04:05:42.361Z,99236.81
2023-04-25T04:08:09.889Z,99242.22
2023-04-25T04:10:37.369Z,99247.41
2023-04-25T04:13:04.849Z,99253.63
2023-04-25T04:15:33.884Z,99252.19
2023-04-25T04:18:03.754Z,99258.00
2023-04-25T04:20:32.065Z,99264.66
2023-04-25T04:22:59.698Z,99258.94
2023-04-25T04:25:27.236Z,99253.25
2023-04-25T04:27:55.578Z,99270.78
2023-04-25T04:30:24.934Z,99277.91
2023-04-25T04:32:53.821Z,99278.56
2023-04-25T04:35:21.474Z,99281.41
2023-04-25T04:37:48.972Z,99281.56
2023-04-25T04:40:17.187Z,99295.03
2023-04-25T04:42:44.618Z,99284.53
2023-04-25T04:45:13.239Z,99286.31
2023-04-25T04:47:40.849Z,99292.28
2023-04-25T04:50:10.578Z,99290.16
2023-04-25T04:52:38.743Z,99293.53
2023-04-25T04:55:07.348Z,99300.69
2023-04-25T04:57:34.795Z,99301.16
2023-04-25T05:00:03.177Z,99299.84
2023-04-25T05:02:30.712Z,99301.97
2023-04-25T05:04:58.776Z,99304.41
2023-04-25T05:07:27.563Z,99313.56
2023-04-25T05:09:54.976Z,99303.22
2023-04-25T05:12:22.532Z,99315.06
2023-04-25T05:14:49.982Z,99310.19
2023-04-25T05:17:17.508Z,99325.53
2023-04-25T05:19:45.036Z,99319.75
2023-04-25T05:22:12.480Z,99327.94
2023-04-25T05:24:41.274Z,99335.72
2023-04-25T05:27:08.777Z,99332.34
2023-04-25T05:29:36.252Z,99328.81
2023-04-25T05:32:03.811Z,99341.09
2023-04-25T05:34:31.429Z,99346.75
2023-04-25T05:36:58.910Z,99352.09
2023-04-25T05:39:26.344Z,99354.09
2023-04-25T05:41:55.150Z,99352.94
2023-04-25T05:44:23.306Z,99353.72
2023-04-25T05:46:50.809Z,99355.56
2023-04-25T05:49:19.623Z,99353.38
2023-04-25T05:51:47.237Z,99364.19
2023-04-25T05:54:14.674Z,99352.03
2023-04-25T05:56:42.123Z,99360.94
2023-04-25T05:59:10.948Z,99360.50
2023-04-25T06:01:38.746Z,99361.09
2023-04-25T06:04:06.474Z,99370.47
2023-04-25T06:06:34.130Z,99370.63
2023-04-25T06:09:01.816Z,99366.53
2023-04-25T06:11:29.270Z,99375.09
2023-04-25T06:13:56.694Z,99375.72
2023-04-25T06:16:26.931Z,99375.56
2023-04-25T06:18:54.838Z,99370.66
2023-04-25T06:21:22.265Z,99371.91
2023-04-25T06:23:49.852Z,99374.72
2023-04-25T06:26:17.926Z,99385.75
2023-04-25T06:28:45.352Z,99381.03
2023-04-25T06:31:12.890Z,99379.97
2023-04-25T06:33:41.662Z,99392.44
2023-04-25T06:36:09.386Z,99376.84
2023-04-25T06:38:37.034Z,99380.03
2023-04-25T06:41:04.509Z,99382.25
2023-04-25T06:43:34.025Z,99390.63
2023-04-25T06:46:01.927Z,99388.47
2023-04-25T06:48:30.474Z,99394.16
2023-04-25T06:50:59.315Z,99394.66
2023-04-25T06:53:26.789Z,99391.50
2023-04-25T06:55:54.298Z,99388.53
2023-04-25T06:58:21.786Z,99400.09
2023-04-25T07:00:49.277Z,99396.75
2023-04-25T07:03:17.085Z,99395.25
2023-04-25T07:05:46.670Z,99395.63
2023-04-25T07:08:15.546Z,99395.69
2023-04-25T07:10:43.231Z,99401.22
2023-04-25T07:13:10.735Z,99410.16
2023-04-25T07:15:38.547Z,99396.91
2023-04-25T07:18:06.202Z,99400.53
2023-04-25T07:20:33.782Z,99399.72
2023-04-25T07:23:01.264Z,99400.59
2023-04-25T07:25:30.065Z,99409.94
2023-04-25T07:27:57.490Z,99412.69
2023-04-25T07:30:25.039Z,99420.28
2023-04-25T07:32:52.822Z,99423.63
2023-04-25T07:35:20.336Z,99417.63
2023-04-25T07:37:47.756Z,99418.50
2023-04-25T07:40:16.608Z,99424.47
2023-04-25T07:42:45.511Z,99428.28
2023-04-25T07:45:12.985Z,99431.06
2023-04-25T07:47:40.491Z,99427.16
2023-04-25T07:50:08.981Z,99433.75
2023-04-25T07:52:36.579Z,99449.22
2023-04-25T07:55:04.126Z,99434.59
2023-04-25T07:57:31.776Z,99440.47
2023-04-25T08:00:00.942Z,99443.00
2023-04-25T08:02:29.296Z,99444.59
2023-04-25T08:04:57.016Z,99453.09
2023-04-25T08:07:24.528Z,99451.84
2023-04-25T08:09:51.968Z,99462.38
2023-04-25T08:12:20.636Z,99461.03
2023-04-25T08:14:49.672Z,99472.00
2023-04-25T08:17:18.419Z,99481.81
2023-04-25T08:19:45.924Z,99477.31
2023-04-25T08:22:13.683Z,99475.69
2023-04-25T08:24:41.133Z,99483.38
2023-04-25T08:27:08.585Z,99480.81
2023-04-25T08:29:36.513Z,99484.38
2023-04-25T08:32:03.986Z,99498.16
2023-04-25T08:34:32.797Z,99501.69
2023-04-25T08:37:00.237Z,99506.00
2023-04-25T08:39:27.847Z,99498.69
2023-04-25T08:41:55.502Z,99505.69
2023-04-25T08:44:22.968Z,99503.06
2023-04-25T08:46:51.556Z,99505.38
2023-04-25T08:49:20.089Z,99513.81
2023-04-25T08:51:50.676Z,99512.88
2023-04-25T08:56:50.243Z,99517.97
2023-04-25T08:59:19.307Z,99528.34
2023-04-25T09:01:47.144Z,99532.94
2023-04-25T09:04:15.597Z,99527.31
2023-04-25T09:06:43.149Z,99531.88
2023-04-25T09:09:12.528Z,99541.47
2023-04-25T09:11:40.067Z,99542.69
2023-04-25T09:14:15.872Z,99548.81
2023-04-25T09:17:01.127Z,99546.47
2023-04-25T09:19:39.820Z,99551.97
2023-04-25T09:22:08.609Z,99556.09
2023-04-25T09:24:39.744Z,99554.59
2023-04-25T09:27:08.071Z,99558.13
2023-04-25T09:29:37.241Z,99563.03
2023-04-25T09:32:16.776Z,99549.69
2023-04-25T09:34:45.795Z,99558.66
2023-04-25T09:37:13.875Z,99559.78
2023-04-25T09:39:42.656Z,99565.34
2023-04-25T09:42:11.259Z,99563.97
2023-04-25T09:44:38.715Z,99566.53
2023-04-25T09:47:12.094Z,99568.50
2023-04-25T09:49:42.100Z,99577.63
2023-04-25T09:52:09.590Z,99575.03
2023-04-25T09:54:37.095Z,99583.66
2023-04-25T09:57:13.345Z,99569.28
2023-04-25T09:59:44.734Z,99572.31
2023-04-25T10:02:13.197Z,99579.16
2023-04-25T10:04:41.355Z,99586.56
2023-04-25T10:07:10.010Z,99582.97
2023-04-25T10:09:40.385Z,99582.75
2023-04-25T10:12:10.159Z,99582.13
2023-04-25T10:14:37.917Z,99590.34
2023-04-25T10:17:05.734Z,99592.91
2023-04-25T10:19:33.847Z,99602.81
2023-04-25T10:22:08.219Z,99600.72
2023-04-25T10:24:37.336Z,99599.69
2023-04-25T10:27:06.252Z,99596.06
2023-04-25T10:29:35.227Z,99596.91
2023-04-25T10:32:02.706Z,99595.13
2023-04-25T10:34:41.538Z,99602.25
2023-04-25T10:37:11.321Z,99593.13
2023-04-25T10:39:42.053Z,99595.50
2023-04-25T10:42:10.230Z,99609.41
2023-04-25T10:44:40.997Z,99602.09
2023-04-25T10:47:10.408Z,99619.00
2023-04-25T10:49:40.121Z,99608.13
2023-04-25T10:52:19.432Z,99619.34
2023-04-25T10:54:52.153Z,99614.53
2023-04-25T10:57:33.504Z,99618.44
2023-04-25T11:00:06.805Z,99619.78
2023-04-25T11:02:38.713Z,99617.09
2023-04-25T11:05:07.066Z,99619.50
2023-04-25T11:07:40.456Z,99612.59
2023-04-25T11:10:08.802Z,99613.84
2023-04-25T11:12:36.271Z,99636.22
2023-04-25T11:15:08.238Z,99623.84
2023-04-25T11:17:36.144Z,99628.03
2023-04-25T11:20:07.817Z,99641.56
2023-04-25T11:22:35.722Z,99645.44
2023-04-25T11:25:07.216Z,99651.56
2023-04-25T11:27:35.696Z,99647.75
2023-04-25T11:30:14.506Z,99651.28
2023-04-25T11:32:43.055Z,99664.19
2023-04-25T11:35:10.954Z,99662.78
2023-04-25T11:37:40.459Z,99665.94
2023-04-25T11:40:10.437Z,99673.78
2023-04-25T11:42:40.065Z,99672.28
2023-04-25T11:45:08.832Z,99672.19
2023-04-25T11:47:37.753Z,99672.88
2023-04-25T11:50:08.260Z,99671.47
2023-04-25T11:52:43.574Z,99676.25
2023-04-25T11:55:12.031Z,99671.22
2023-04-25T11:57:40.656Z,99667.16
2023-04-25T12:00:16.476Z,99664.69
2023-04-25T12:02:48.533Z,99658.72
2023-04-25T12:05:31.244Z,99673.78
2023-04-25T12:08:11.986Z,99658.66
2023-04-25T12:10:40.595Z,99660.59
2023-04-25T12:13:23.031Z,99668.38
2023-04-25T12:15:50.796Z,99668.06
2023-04-25T12:18:23.122Z,99670.28
2023-04-25T12:20:50.742Z,99664.19
2023-04-25T12:23:18.200Z,99651.25
2023-04-25T12:25:48.186Z,99653.53
2023-04-25T12:28:20.391Z,99660.97
2023-04-25T12:30:58.575Z,99653.63
2023-04-25T12:33:28.976Z,99663.84
2023-04-25T12:35:57.334Z,99665.69
2023-04-25T12:38:26.093Z,99665.09
2023-04-25T12:40:53.835Z,99657.59
2023-04-25T12:43:22.601Z,99666.28
2023-04-25T12:45:51.425Z,99668.19
2023-04-25T12:48:19.200Z,99658.25
2023-04-25T12:50:49.876Z,99662.53
2023-04-25T12:53:17.437Z,99659.75
2023-04-25T12:55:46.853Z,99663.88
2023-04-25T12:58:14.574Z,99673.69
2023-04-25T13:00:42.085Z,99666.38
2023-04-25T13:03:10.212Z,99669.03
2023-04-25T13:05:38.545Z,99671.09
2023-04-25T13:08:07.340Z,99665.72
2023-04-25T13:10:36.947Z,99667.44
2023-04-25T13:13:04.511Z,99667.56
2023-04-25T13:15:32.063Z,99668.50
2023-04-25T13:17:59.558Z,99680.38
2023-04-25T13:20:27.033Z,99675.69
2023-04-25T13:22:54.635Z,99681.59
2023-04-25T13:25:23.711Z,99685.75
2023-04-25T13:27:51.205Z,99689.47
2023-04-25T13:30:18.725Z,99693.06
2023-04-25T13:32:46.548Z,99708.47
2023-04-25T13:35:15.083Z,99720.06
2023-04-25T13:37:42.822Z,99717.72
2023-04-25T13:40:12.215Z,99708.88
2023-04-25T13:42:41.223Z,99709.06
2023-04-25T13:45:09.927Z,99709.25
2023-04-25T13:47:37.426Z,99712.78
2023-04-25T13:50:08.125Z,99717.56
2023-04-25T13:52:35.903Z,99718.00
2023-04-25T13:55:04.898Z,99716.84
2023-04-25T13:57:32.504Z,99706.81
2023-04-25T14:00:05.640Z,99708.03
2023-04-25T14:02:33.207Z,99709.16
2023-04-25T14:05:01.039Z,99714.84
2023-04-25T14:07:28.791Z,99711.28
2023-04-25T14:09:58.145Z,99712.16
2023-04-25T14:12:26.315Z,99707.25
2023-04-25T14:14:56.785Z,99699.69
2023-04-25T14:17:25.813Z,99691.00
2023-04-25T14:19:53.291Z,99692.63
2023-04-25T14:22:20.989Z,99692.81
2023-04-25T14:24:48.463Z,99693.56
2023-04-25T14:27:15.963Z,99695.78
2023-04-25T14:29:43.789Z,99688.88
2023-04-25T14:32:11.722Z,99684.72
2023-04-25T14:34:41.190Z,99688.50
2023-04-25T14:37:08.710Z,99692.19
2023-04-25T14:39:36.325Z,99695.06
2023-04-25T14:42:03.948Z,99692.63
2023-04-25T14:44:31.487Z,99686.31
2023-04-25T14:46:59.085Z,99683.81
2023-04-25T14:49:26.693Z,99686.44
2023-04-25T14:51:55.598Z,99686.44
2023-04-25T14:54:23.358Z,99683.91
2023-04-25T14:56:50.824Z,99681.16
2023-04-25T14:59:18.286Z,99678.41
2023-04-25T15:01:45.874Z,99680.00
2023-04-25T15:04:13.892Z,99675.25
2023-04-25T15:06:41.509Z,99666.69
2023-04-25T15:09:11.574Z,99679.34
2023-04-25T15:11:39.590Z,99677.41
2023-04-25T15:14:07.271Z,99675.19
2023-04-25T15:16:34.863Z,99684.03
2023-04-25T15:19:04.688Z,99679.44
2023-04-25T15:21:32.796Z,99692.09
2023-04-25T15:24:00.828Z,99694.84
2023-04-25T15:26:30.126Z,99690.50
2023-04-25T15:28:57.789Z,99695.66
2023-04-25T15:31:25.344Z,99708.34
2023-04-25T15:33:53.094Z,99710.88
2023-04-25T15:36:21.568Z,99706.59
2023-04-25T15:38:49.070Z,99710.69
2023-04-25T15:41:16.676Z,99723.75
2023-04-25T15:43:46.136Z,99715.13
2023-04-25T15:46:13.712Z,99702.50
2023-04-25T15:48:41.312Z,99706.19
2023-04-25T15:51:08.839Z,99706.03
2023-04-25T15:53:36.371Z,99707.31
2023-04-25T15:56:04.509Z,99712.88
2023-04-25T15:58:32.049Z,99722.63
2023-04-25T16:01:00.984Z,99711.16
2023-04-25T16:03:29.026Z,99719.47
2023-04-25T16:05:56.901Z,99712.09
2023-04-25T16:08:25.433Z,99710.25
2023-04-25T16:10:58.560Z,99709.59
2023-04-25T16:13:27.368Z,99719.84
2023-04-25T16:15:54.895Z,99715.81
2023-04-25T16:18:23.806Z,99716.91
2023-04-25T16:20:51.345Z,99716.81
2023-04-25T16:23:19.131Z,99721.03
2023-04-25T16:25:46.652Z,99723.88
2023-04-25T16:28:14.218Z,99725.63
2023-04-25T16:30:41.719Z,99733.41
2023-04-25T16:33:09.613Z,99728.88
2023-04-25T16:35:38.515Z,99725.44
2023-04-25T16:38:05.998Z,99735.00
2023-04-25T16:40:33.581Z,99727.34
2023-04-25T16:43:01.855Z,99739.22
2023-04-25T16:45:29.368Z,99735.41
2023-04-25T16:47:56.807Z,99748.38
2023-04-25T16:50:24.253Z,99747.59
2023-04-25T16:52:54.414Z,99743.19
2023-04-25T16:55:22.077Z,99747.50
2023-04-25T16:57:49.485Z,99741.03
2023-04-25T17:00:18.145Z,99743.41
2023-04-25T17:02:45.659Z,99746.56
2023-04-25T17:05:13.519Z,99752.44
2023-04-25T17:07:40.965Z,99748.72
2023-04-25T17:10:11.095Z,99743.38
2023-04-25T17:12:38.551Z,99750.75
2023-04-25T17:15:07.191Z,99751.63
2023-04-25T17:17:34.687Z,99752.81
2023-04-25T17:20:02.187Z,99754.97
2023-04-25T17:22:29.723Z,99757.22
2023-04-25T17:24:57.271Z,99762.47
2023-04-25T17:27:26.171Z,99766.25
2023-04-25T17:29:53.596Z,99771.66
2023-04-25T17:32:21.306Z,99770.66
2023-04-25T17:34:49.568Z,99764.50
2023-04-25T17:37:18.018Z,99769.66
2023-04-25T17:39:45.846Z,99769.09
2023-04-25T17:42:14.465Z,99771.31
2023-04-25T17:44:43.675Z,99768.78
2023-04-25T17:47:11.440Z,99782.88
2023-04-25T17:49:39.267Z,99770.56
2023-04-25T17:52:07.373Z,99781.56
2023-04-25T17:54:35.189Z,99770.47
2023-04-25T17:57:02.674Z,99783.88
2023-04-25T17:59:30.115Z,99796.59
2023-04-25T18:01:59.941Z,99795.75
2023-04-25T18:04:27.725Z,99808.75
2023-04-25T18:06:55.521Z,99803.31
2023-04-25T18:09:23.604Z,99811.00
2023-04-25T18:11:53.184Z,99811.63
2023-04-25T18:14:21.389Z,99816.66
2023-04-25T18:16:50.016Z,99814.72
2023-04-25T18:19:21.472Z,99817.44
2023-04-25T18:21:49.724Z,99824.28
2023-04-25T18:24:18.590Z,99822.75
2023-04-25T18:26:48.064Z,99829.47
2023-04-25T18:29:31.365Z,99833.88
2023-04-25T18:32:00.966Z,99842.50
2023-04-25T18:34:29.848Z,99846.31
2023-04-25T18:36:57.900Z,99850.66
2023-04-25T18:39:26.180Z,99853.63
2023-04-25T18:42:00.211Z,99855.91
2023-04-25T18:44:33.694Z,99867.38
2023-04-25T18:47:01.721Z,99863.59
2023-04-25T18:49:30.752Z,99866.97
2023-04-25T18:51:58.345Z,99870.72
2023-04-25T18:54:25.932Z,99871.69
2023-04-25T18:56:55.573Z,99877.06
2023-04-25T18:59:23.125Z,99883.28
2023-04-25T19:01:51.796Z,99879.38
2023-04-25T19:04:19.347Z,99887.66
2023-04-25T19:06:49.830Z,99888.59
2023-04-25T19:09:18.194Z,99895.69
2023-04-25T19:11:45.728Z,99903.06
2023-04-25T19:14:14.423Z,99906.00
2023-04-25T19:16:41.983Z,99906.00
2023-04-25T19:19:09.633Z,99911.31
2023-04-25T19:21:37.186Z,99909.38
2023-04-25T19:24:07.299Z,99910.81
2023-04-25T19:26:35.586Z,99911.78
2023-04-25T19:29:08.406Z,99911.97
2023-04-25T19:31:37.291Z,99920.28
2023-04-25T19:34:05.687Z,99917.59
2023-04-25T19:36:33.357Z,99913.53
2023-04-25T19:39:04.021Z,99919.75
2023-04-25T19:41:34.967Z,99918.59
2023-04-25T19:44:04.583Z,99926.41
2023-04-25T19:46:32.205Z,99929.69
2023-04-25T19:48:59.922Z,99926.53
2023-04-25T19:51:28.133Z,99935.22
2023-04-25T19:53:55.830Z,99929.84
2023-04-25T19:56:24.252Z,99929.09
2023-04-25T19:58:53.781Z,99932.50
2023-04-25T20:01:22.552Z,99931.53
2023-04-25T20:03:52.475Z,99936.31
2023-04-25T20:06:20.274Z,99933.44
2023-04-25T20:08:47.965Z,99941.00
2023-04-25T20:11:15.925Z,99946.94
2023-04-25T20:13:43.429Z,99947.38
2023-04-25T20:16:12.340Z,99953.09
2023-04-25T20:18:41.420Z,99950.75
2023-04-25T20:21:09.338Z,99953.47
2023-04-25T20:23:36.805Z,99955.94
2023-04-25T20:26:05.033Z,99956.84
2023-04-25T20:28:32.932Z,99958.81
2023-04-25T20:31:00.618Z,99960.09
2023-04-25T20:33:29.449Z,99959.09
2023-04-25T20:35:56.999Z,99959.78
2023-04-25T20:38:24.483Z,99965.03
2023-04-25T20:40:52.015Z,99959.94
2023-04-25T20:43:19.774Z,99968.69
2023-04-25T20:45:47.283Z,99965.59
2023-04-25T20:48:15.093Z,99967.13
2023-04-25T20:50:43.888Z,99965.69
2023-04-25T20:53:11.976Z,99961.25
2023-04-25T20:55:41.438Z,99965.38
2023-04-25T20:58:08.925Z,99971.97
2023-04-25T21:00:36.359Z,99958.03
2023-04-25T21:03:05.160Z,99961.72
2023-04-25T21:05:32.891Z,99960.97
2023-04-25T21:08:01.689Z,99966.88
2023-04-25T21:10:29.187Z,99963.78
2023-04-25T21:12:57.693Z,99964.75
2023-04-25T21:15:25.304Z,99977.22
2023-04-25T21:17:53.088Z,99970.03
2023-04-25T21:20:22.055Z,99975.28
2023-04-25T21:22:53.832Z,99980.44
2023-04-25T21:25:29.156Z,99978.16
2023-04-25T21:27:56.865Z,99982.63
2023-04-25T21:30:25.820Z,99979.41
2023-04-25T21:32:53.948Z,99991.56
2023-04-25T21:35:22.606Z,99979.81
2023-04-25T21:37:50.714Z,99987.78
2023-04-25T21:40:18.376Z,99987.31
2023-04-25T21:42:51.139Z,99993.78
2023-04-25T21:45:19.732Z,99987.72
2023-04-25T21:47:47.680Z,99987.53
2023-04-25T21:50:15.952Z,99986.47
2023-04-25T21:52:43.457Z,99982.47
2023-04-25T21:55:11.404Z,99998.91
2023-04-25T21:57:38.919Z,99989.47
2023-04-25T22:00:20.290Z,100000.41
2023-04-25T22:02:48.021Z,99996.53
2023-04-25T22:05:16.035Z,99998.94
2023-04-25T22:07:43.513Z,99998.72
2023-04-25T22:10:12.270Z,100013.22
2023-04-25T22:12:40.291Z,99999.59
2023-04-25T22:15:12.544Z,100011.44
2023-04-25T22:17:40.867Z,100012.44
2023-04-25T22:20:14.140Z,100012.16
2023-04-25T22:22:41.954Z,100016.31
2023-04-25T22:25:09.889Z,100011.75
2023-04-25T22:27:37.369Z,100012.53
2023-04-25T22:30:05.594Z,100024.28
2023-04-25T22:32:34.452Z,100018.00
2023-04-25T22:35:02.011Z,100020.25
2023-04-25T22:37:29.581Z,100024.41
2023-04-25T22:39:57.898Z,100024.28
2023-04-25T22:42:25.380Z,100031.41
2023-04-25T22:44:53.795Z,100032.69
2023-04-25T22:47:22.911Z,100036.56
2023-04-25T22:49:53.489Z,100036.72
2023-04-25T22:52:20.927Z,100040.63
2023-04-25T22:54:48.424Z,100040.28
2023-04-25T22:57:16.675Z,100044.41
2023-04-25T22:59:44.151Z,100044.97
2023-04-25T23:02:12.291Z,100042.44
2023-04-25T23:04:39.913Z,100038.50
2023-04-25T23:07:08.746Z,100040.69
2023-04-25T23:09:36.525Z,100051.06
2023-04-25T23:12:04.775Z,100046.47
2023-04-25T23:14:32.986Z,100049.25
2023-04-25T23:17:01.157Z,100053.69
2023-04-25T23:19:29.556Z,100051.13
2023-04-25T23:21:57.287Z,100051.31
2023-04-25T23:24:26.698Z,100052.69
2023-04-25T23:26:54.170Z,100054.28
2023-04-25T23:29:21.710Z,100049.59
2023-04-25T23:31:49.146Z,100053.91
2023-04-25T23:34:16.602Z,100051.38
2023-04-25T23:36:44.113Z,100058.25
2023-04-25T23:39:12.815Z,100051.06
2023-04-25T23:41:41.647Z,100056.00
2023-04-25T23:44:10.666Z,100053.13
2023-04-25T23:46:38.145Z,100060.69
2023-04-25T23:49:05.621Z,100056.22
2023-04-25T23:51:33.670Z,100063.81
2023-04-25T23:54:02.093Z,100063.06
2023-04-25T23:56:30.652Z,100069.63
2023-04-25T23:58:59.454Z,100063.72
